createdAt,value
2022-09-02T00:00:20.891Z,9.57
2022-09-02T00:03:07.140Z,8.13
2022-09-02T00:05:52.300Z,7.35
2022-09-02T00:08:38.660Z,6.40
2022-09-02T00:11:27.582Z,8.50
2022-09-02T00:14:18.210Z,4.75
2022-09-02T00:17:04.802Z,8.07
2022-09-02T00:19:55.546Z,4.93
2022-09-02T00:22:41.650Z,8.02
2022-09-02T00:25:27.336Z,5.93
2022-09-02T00:28:14.589Z,5.75
2022-09-02T00:31:01.727Z,6.75
2022-09-02T00:33:47.374Z,5.75
2022-09-02T00:36:33.595Z,10.20
2022-09-02T00:39:19.479Z,7.68
2022-09-02T00:42:05.830Z,7.60
2022-09-02T00:44:52.170Z,8.13
2022-09-02T00:47:38.367Z,10.65
2022-09-02T00:50:29.828Z,10.18
2022-09-02T00:53:15.494Z,10.35
2022-09-02T00:56:02.451Z,5.97
2022-09-02T00:58:50.462Z,12.10
2022-09-02T01:01:36.194Z,6.10
2022-09-02T01:04:21.928Z,5.85
2022-09-02T01:07:07.383Z,8.77
2022-09-02T01:09:55.618Z,5.28
2022-09-02T01:12:41.310Z,8.60
2022-09-02T01:15:30.267Z,8.65
2022-09-02T01:18:20.344Z,7.20
2022-09-02T01:21:06.834Z,7.85
2022-09-02T01:23:53.080Z,9.25
2022-09-02T01:26:38.581Z,10.18
2022-09-02T01:29:25.125Z,12.80
2022-09-02T01:32:12.115Z,9.13
2022-09-02T01:34:57.973Z,8.15
2022-09-02T01:37:54.838Z,6.20
2022-09-02T01:40:41.791Z,15.57
2022-09-02T01:43:29.875Z,6.93
2022-09-02T01:46:15.721Z,11.20
2022-09-02T01:49:01.540Z,4.65
2022-09-02T01:51:47.116Z,4.47
2022-09-02T01:54:32.728Z,7.72
2022-09-02T01:57:18.636Z,7.55
2022-09-02T02:00:07.254Z,8.18
2022-09-02T02:02:58.070Z,6.80
2022-09-02T02:05:44.939Z,10.00
2022-09-02T02:08:33.884Z,9.13
2022-09-02T02:11:24.025Z,8.57
2022-09-02T02:14:14.895Z,7.18
2022-09-02T02:17:05.798Z,8.00
2022-09-02T02:19:51.228Z,8.68
2022-09-02T02:22:37.217Z,7.55
2022-09-02T02:25:22.956Z,5.38
2022-09-02T02:28:11.561Z,5.32
2022-09-02T02:30:58.278Z,10.77
2022-09-02T02:33:44.094Z,5.80
2022-09-02T02:36:30.572Z,6.03
2022-09-02T02:39:17.105Z,6.57
2022-09-02T02:42:02.378Z,9.55
2022-09-02T02:44:47.703Z,8.15
2022-09-02T02:47:33.597Z,8.63
2022-09-02T02:50:21.749Z,4.85
2022-09-02T02:53:08.893Z,5.28
2022-09-02T02:55:59.656Z,8.80
2022-09-02T02:58:45.515Z,8.63
2022-09-02T03:01:32.774Z,6.63
2022-09-02T03:04:18.988Z,6.03
2022-09-02T03:07:07.233Z,6.88
2022-09-02T03:09:52.825Z,8.82
2022-09-02T03:12:39.728Z,10.20
2022-09-02T03:15:26.488Z,4.50
2022-09-02T03:18:12.733Z,10.23
2022-09-02T03:20:58.447Z,6.82
2022-09-02T03:23:45.339Z,8.38
2022-09-02T03:26:31.362Z,5.15
2022-09-02T03:29:17.201Z,7.07
2022-09-02T03:32:04.028Z,7.15
2022-09-02T03:34:50.386Z,8.73
2022-09-02T03:37:37.191Z,7.93
2022-09-02T03:40:26.015Z,5.00
2022-09-02T03:43:13.165Z,8.00
2022-09-02T03:45:59.685Z,6.28
2022-09-02T03:48:45.498Z,6.28
2022-09-02T03:51:33.199Z,5.18
2022-09-02T03:54:18.692Z,10.32
2022-09-02T03:57:04.926Z,6.15
2022-09-02T03:59:51.851Z,11.35
2022-09-02T04:02:37.776Z,9.85
2022-09-02T04:05:24.825Z,5.40
2022-09-02T04:08:14.232Z,5.25
2022-09-02T04:10:59.593Z,4.63
2022-09-02T04:13:47.074Z,6.78
2022-09-02T04:16:36.103Z,5.85
2022-09-02T04:19:25.085Z,6.88
2022-09-02T04:22:10.514Z,4.82
2022-09-02T04:24:57.194Z,5.05
2022-09-02T04:27:42.590Z,4.80
2022-09-02T04:30:28.388Z,4.93
2022-09-02T04:33:13.943Z,6.22
2022-09-02T04:36:00.395Z,6.88
2022-09-02T04:38:47.787Z,4.90
2022-09-02T04:41:35.794Z,4.28
2022-09-02T04:44:25.640Z,5.15
2022-09-02T04:47:11.634Z,9.27
2022-09-02T04:49:58.534Z,9.30
2022-09-02T04:52:44.186Z,4.35
2022-09-02T04:55:29.576Z,6.10
2022-09-02T04:58:16.776Z,5.95
2022-09-02T05:01:10.949Z,7.28
2022-09-02T05:03:56.602Z,5.78
2022-09-02T05:06:47.065Z,3.60
2022-09-02T05:09:37.306Z,3.75
2022-09-02T05:12:27.384Z,4.25
2022-09-02T05:15:16.950Z,4.65
2022-09-02T05:18:03.814Z,6.00
2022-09-02T05:20:51.532Z,5.90
2022-09-02T05:23:37.387Z,5.13
2022-09-02T05:26:24.223Z,4.70
2022-09-02T05:29:11.861Z,5.68
2022-09-02T05:31:59.296Z,4.90
2022-09-02T05:34:45.091Z,9.15
2022-09-02T05:37:31.052Z,5.45
2022-09-02T05:40:22.492Z,6.85
2022-09-02T05:43:08.871Z,5.10
2022-09-02T05:45:55.776Z,7.97
2022-09-02T05:49:00.393Z,9.48
2022-09-02T05:51:45.829Z,5.28
2022-09-02T05:54:37.067Z,6.68
2022-09-02T05:57:26.956Z,6.22
2022-09-02T06:00:18.267Z,4.05
2022-09-02T06:03:18.440Z,2.63
2022-09-02T06:06:06.717Z,6.13
2022-09-02T06:08:55.569Z,6.55
2022-09-02T06:11:49.334Z,3.60
2022-09-02T06:14:38.865Z,3.60
2022-09-02T06:17:25.792Z,5.35
2022-09-02T06:20:12.147Z,3.45
2022-09-02T06:22:59.903Z,2.40
2022-09-02T06:25:47.739Z,1.63
2022-09-02T06:28:33.715Z,3.08
2022-09-02T06:31:22.424Z,1.83
2022-09-02T06:34:09.195Z,4.22
2022-09-02T06:36:55.033Z,2.72
2022-09-02T06:39:44.869Z,6.57
2022-09-02T06:42:35.755Z,2.03
2022-09-02T06:45:28.894Z,3.65
2022-09-02T06:48:17.332Z,2.63
2022-09-02T06:51:03.818Z,3.20
2022-09-02T06:53:51.870Z,4.03
2022-09-02T06:56:39.909Z,3.30
2022-09-02T06:59:26.917Z,1.65
2022-09-02T07:05:10.064Z,2.60
2022-09-02T07:07:56.420Z,4.43
2022-09-02T07:10:42.267Z,4.85
2022-09-02T07:13:28.430Z,5.68
2022-09-02T07:16:20.450Z,2.45
2022-09-02T07:19:19.945Z,1.85
2022-09-02T07:22:07.262Z,2.50
2022-09-02T07:27:50.337Z,3.90
2022-09-02T07:30:37.178Z,2.58
2022-09-02T07:33:28.215Z,3.22
2022-09-02T07:36:15.625Z,1.00
2022-09-02T07:39:01.787Z,0.70
2022-09-02T07:41:50.290Z,1.75
2022-09-02T07:44:37.930Z,2.53
2022-09-02T07:47:25.540Z,6.72
2022-09-02T07:50:17.058Z,2.55
2022-09-02T07:53:08.391Z,2.35
2022-09-02T07:55:55.431Z,1.85
2022-09-02T07:58:43.151Z,6.70
2022-09-02T08:01:29.737Z,2.28
2022-09-02T08:04:16.686Z,2.60
2022-09-02T08:07:01.961Z,6.57
2022-09-02T08:09:54.133Z,2.58
2022-09-02T08:12:41.492Z,3.40
2022-09-02T08:15:28.834Z,1.13
2022-09-02T08:18:22.267Z,2.22
2022-09-02T08:21:08.395Z,3.35
2022-09-02T08:23:54.296Z,1.88
2022-09-02T08:26:39.817Z,4.30
2022-09-02T08:29:25.149Z,3.50
2022-09-02T08:32:10.766Z,1.40
2022-09-02T08:34:56.686Z,6.28
2022-09-02T08:37:42.315Z,3.15
2022-09-02T08:40:40.942Z,3.10
2022-09-02T08:43:44.153Z,2.35
2022-09-02T08:46:32.896Z,2.00
2022-09-02T08:49:26.112Z,1.23
2022-09-02T08:52:20.074Z,1.00
2022-09-02T08:55:07.686Z,1.38
2022-09-02T08:57:56.574Z,3.60
2022-09-02T09:00:46.185Z,1.95
2022-09-02T09:03:51.631Z,1.40
2022-09-02T09:06:46.637Z,6.00
2022-09-02T09:09:44.651Z,1.77
2022-09-02T09:12:43.103Z,3.28
2022-09-02T09:15:49.544Z,2.42
2022-09-02T09:18:39.287Z,4.97
2022-09-02T09:24:36.842Z,0.90
2022-09-02T09:27:23.296Z,1.88
2022-09-02T09:30:15.025Z,2.08
2022-09-02T09:33:08.241Z,2.80
2022-09-02T09:38:41.860Z,1.38
2022-09-02T09:41:29.124Z,3.50
2022-09-02T09:44:38.935Z,3.10
2022-09-02T09:47:26.065Z,2.72
2022-09-02T09:50:16.848Z,0.85
2022-09-02T09:53:23.280Z,1.45
2022-09-02T09:56:21.438Z,0.90
2022-09-02T09:59:09.496Z,4.25
2022-09-02T10:01:55.461Z,4.15
2022-09-02T10:04:43.637Z,0.77
2022-09-02T10:08:16.017Z,0.93
2022-09-02T10:14:05.074Z,3.30
2022-09-02T10:16:57.014Z,1.33
2022-09-02T10:20:05.048Z,2.00
2022-09-02T10:23:11.754Z,2.33
2022-09-02T10:26:11.627Z,1.90
2022-09-02T10:29:23.454Z,2.38
2022-09-02T10:32:27.433Z,3.90
2022-09-02T10:35:19.339Z,6.50
2022-09-02T10:38:15.867Z,2.10
2022-09-02T10:41:14.596Z,2.45
2022-09-02T10:44:13.509Z,2.58
2022-09-02T10:47:04.990Z,45.10
2022-09-02T10:49:59.905Z,22.00
2022-09-02T10:53:09.513Z,18.75
2022-09-02T10:56:21.526Z,6.07
2022-09-02T10:59:40.581Z,6.15
2022-09-02T11:03:11.201Z,5.47
2022-09-02T11:06:14.626Z,2.33
2022-09-02T11:09:06.684Z,1.98
2022-09-02T11:12:04.401Z,14.38
2022-09-02T11:15:04.564Z,4.85
2022-09-02T11:18:19.830Z,5.03
2022-09-02T11:21:19.479Z,3.00
2022-09-02T11:24:29.546Z,1.60
2022-09-02T11:27:44.620Z,3.97
2022-09-02T11:30:47.544Z,5.13
2022-09-02T11:33:52.401Z,2.83
2022-09-02T11:36:39.922Z,3.28
2022-09-02T11:39:54.459Z,3.33
2022-09-02T11:43:15.368Z,3.08
2022-09-02T11:46:25.936Z,8.82
2022-09-02T11:49:29.606Z,6.35
2022-09-02T11:52:53.885Z,5.03
2022-09-02T11:55:57.299Z,2.75
2022-09-02T11:58:45.675Z,2.65
2022-09-02T12:01:43.969Z,2.97
2022-09-02T12:07:48.593Z,6.00
2022-09-02T12:11:00.577Z,1.83
2022-09-02T12:17:02.734Z,2.65
2022-09-02T12:19:50.665Z,1.77
2022-09-02T12:22:39.350Z,4.07
2022-09-02T12:25:27.006Z,8.50
2022-09-02T12:28:26.155Z,2.83
2022-09-02T12:31:40.760Z,2.63
2022-09-02T12:34:34.387Z,4.95
2022-09-02T12:37:58.103Z,2.92
2022-09-02T12:41:07.911Z,6.15
2022-09-02T12:44:23.759Z,5.88
2022-09-02T12:47:35.560Z,2.47
2022-09-02T12:50:55.361Z,3.67
2022-09-02T12:53:41.276Z,13.20
2022-09-02T12:56:27.332Z,4.07
2022-09-02T12:59:27.393Z,5.72
2022-09-02T13:02:31.642Z,3.03
2022-09-02T13:05:49.761Z,5.63
2022-09-02T13:08:41.124Z,5.18
2022-09-02T13:11:41.982Z,6.55
2022-09-02T13:14:42.611Z,3.38
2022-09-02T13:17:48.884Z,3.97
2022-09-02T13:20:43.624Z,6.15
2022-09-02T13:23:47.398Z,5.18
2022-09-02T13:27:06.107Z,6.38
2022-09-02T13:30:08.006Z,4.67
2022-09-02T13:33:06.507Z,4.60
2022-09-02T13:35:59.512Z,4.32
2022-09-02T13:38:44.825Z,3.42
2022-09-02T13:41:32.813Z,3.22
2022-09-02T13:44:24.588Z,4.50
2022-09-02T13:47:16.326Z,7.72
2022-09-02T13:50:02.029Z,3.58
2022-09-02T13:53:45.892Z,7.18
2022-09-02T13:56:00.247Z,1.98
2022-09-02T13:58:56.698Z,3.15
2022-09-02T14:01:42.222Z,4.88
2022-09-02T14:04:29.285Z,6.55
2022-09-02T14:07:15.833Z,6.15
2022-09-02T14:10:06.077Z,3.20
2022-09-02T14:12:52.138Z,4.15
2022-09-02T14:15:37.856Z,11.52
2022-09-02T14:18:25.014Z,3.60
2022-09-02T14:21:18.276Z,9.52
2022-09-02T14:24:04.820Z,7.88
2022-09-02T14:26:53.076Z,11.13
2022-09-02T14:29:44.749Z,7.85
2022-09-02T14:32:30.229Z,4.05
2022-09-02T14:35:18.488Z,8.43
2022-09-02T14:38:04.248Z,6.00
2022-09-02T14:40:49.726Z,6.10
2022-09-02T14:43:43.710Z,10.65
2022-09-02T14:46:46.074Z,5.78
2022-09-02T14:49:39.301Z,7.05
2022-09-02T14:52:33.351Z,9.60
2022-09-02T14:55:42.129Z,9.70
2022-09-02T14:58:28.978Z,5.70
2022-09-02T15:01:14.787Z,8.73
2022-09-02T15:04:02.599Z,11.52
2022-09-02T15:06:49.843Z,6.50
2022-09-02T15:09:35.942Z,11.82
2022-09-02T15:12:33.211Z,10.07
2022-09-02T15:15:19.145Z,7.88
2022-09-02T15:18:05.392Z,5.80
2022-09-02T15:20:55.045Z,3.95
2022-09-02T15:23:41.180Z,5.95
2022-09-02T15:26:28.700Z,14.10
2022-09-02T15:29:14.065Z,15.88
2022-09-02T15:32:00.443Z,9.25
2022-09-02T15:34:46.308Z,8.00
2022-09-02T15:37:35.141Z,10.75
2022-09-02T15:40:20.976Z,7.05
2022-09-02T15:43:06.333Z,8.57
2022-09-02T15:45:51.879Z,8.30
2022-09-02T15:48:37.349Z,5.75
2022-09-02T15:51:24.618Z,9.18
2022-09-02T15:54:11.534Z,9.10
2022-09-02T15:57:02.145Z,11.30
2022-09-02T15:59:48.073Z,6.70
2022-09-02T16:02:33.592Z,8.35
2022-09-02T16:05:18.834Z,9.48
2022-09-02T16:08:04.455Z,6.07
2022-09-02T16:10:50.621Z,7.85
2022-09-02T16:13:37.431Z,8.77
2022-09-02T16:16:22.699Z,10.00
2022-09-02T16:19:09.803Z,12.48
2022-09-02T16:21:55.488Z,12.05
2022-09-02T16:24:41.025Z,14.40
2022-09-02T16:27:45.138Z,11.35
2022-09-02T16:30:31.030Z,13.07
2022-09-02T16:33:16.932Z,15.73
2022-09-02T16:36:03.664Z,13.10
2022-09-02T16:38:49.238Z,20.83
2022-09-02T16:41:39.589Z,21.75
2022-09-02T16:44:26.747Z,23.70
2022-09-02T16:47:13.816Z,16.25
2022-09-02T16:50:00.217Z,14.32
2022-09-02T16:52:47.387Z,15.38
2022-09-02T16:55:33.619Z,14.90
2022-09-02T16:58:24.972Z,19.35
2022-09-02T17:01:12.500Z,18.10
2022-09-02T17:04:03.386Z,15.15
2022-09-02T17:06:52.272Z,16.25
2022-09-02T17:09:38.627Z,19.58
2022-09-02T17:12:24.029Z,23.25
2022-09-02T17:15:10.414Z,15.48
2022-09-02T17:17:57.134Z,13.85
2022-09-02T17:20:43.170Z,21.42
2022-09-02T17:23:28.701Z,23.02
2022-09-02T17:26:15.592Z,15.55
2022-09-02T17:29:06.589Z,19.45
2022-09-02T17:31:52.573Z,11.02
2022-09-02T17:34:38.007Z,14.63
2022-09-02T17:37:23.757Z,18.75
2022-09-02T17:40:32.619Z,16.27
2022-09-02T17:43:18.028Z,21.00
2022-09-02T17:46:08.862Z,11.95
2022-09-02T17:49:15.943Z,20.48
2022-09-02T17:52:07.686Z,16.52
2022-09-02T17:54:55.376Z,14.88
2022-09-02T17:58:15.076Z,13.80
2022-09-02T18:01:16.318Z,12.23
2022-09-02T18:04:41.328Z,12.43
2022-09-02T18:08:02.745Z,15.15
2022-09-02T18:11:04.516Z,11.45
2022-09-02T18:13:57.150Z,13.02
2022-09-02T18:16:48.297Z,11.05
2022-09-02T18:20:06.422Z,10.48
2022-09-02T18:23:30.335Z,8.73
2022-09-02T18:26:42.431Z,6.22
2022-09-02T18:29:40.470Z,8.68
2022-09-02T18:32:30.543Z,8.35
2022-09-02T18:35:44.136Z,4.97
2022-09-02T18:38:52.354Z,5.07
2022-09-02T18:41:45.150Z,8.68
2022-09-02T18:44:59.695Z,13.77
2022-09-02T18:47:50.061Z,7.88
2022-09-02T18:50:51.577Z,10.70
2022-09-02T18:53:45.033Z,12.25
2022-09-02T18:56:35.282Z,6.82
2022-09-02T18:59:30.079Z,13.70
2022-09-02T19:02:39.052Z,6.50
2022-09-02T19:05:26.937Z,6.32
2022-09-02T19:08:30.547Z,4.45
2022-09-02T19:11:17.921Z,6.30
2022-09-02T19:14:18.352Z,12.30
2022-09-02T19:17:04.114Z,4.18
2022-09-02T19:19:49.645Z,6.93
2022-09-02T19:22:39.824Z,3.90
2022-09-02T19:25:29.071Z,4.68
2022-09-02T19:28:18.100Z,3.55
2022-09-02T19:31:04.576Z,4.38
2022-09-02T19:33:53.677Z,7.20
2022-09-02T19:36:42.539Z,5.38
2022-09-02T19:39:30.243Z,4.13
2022-09-02T19:42:20.061Z,3.40
2022-09-02T19:45:14.168Z,3.85
2022-09-02T19:50:55.303Z,5.22
2022-09-02T19:53:43.173Z,6.20
2022-09-02T19:56:29.110Z,3.28
2022-09-02T19:59:14.676Z,4.53
2022-09-02T20:02:00.585Z,3.47
2022-09-02T20:04:45.816Z,5.32
2022-09-02T20:07:31.422Z,4.63
2022-09-02T20:10:20.428Z,3.88
2022-09-02T20:13:15.978Z,2.92
2022-09-02T20:16:02.291Z,3.63
2022-09-02T20:18:50.063Z,3.95
2022-09-02T20:21:42.783Z,5.13
2022-09-02T20:24:32.315Z,5.75
2022-09-02T20:27:30.025Z,5.65
2022-09-02T20:30:18.853Z,5.07
2022-09-02T20:33:12.799Z,5.82
2022-09-02T20:35:58.363Z,3.80
2022-09-02T20:39:11.993Z,6.28
2022-09-02T20:42:35.329Z,4.45
2022-09-02T20:45:38.064Z,4.82
2022-09-02T20:48:39.976Z,5.88
2022-09-02T20:51:44.797Z,6.22
2022-09-02T20:54:52.978Z,5.95
2022-09-02T20:58:15.790Z,4.00
2022-09-02T21:01:08.391Z,4.60
2022-09-02T21:04:14.260Z,4.00
2022-09-02T21:07:11.076Z,4.97
2022-09-02T21:10:19.250Z,4.72
2022-09-02T21:13:17.252Z,6.15
2022-09-02T21:16:11.189Z,5.07
2022-09-02T21:19:03.638Z,4.25
2022-09-02T21:21:54.010Z,4.57
2022-09-02T21:25:09.512Z,4.10
2022-09-02T21:27:55.124Z,8.15
2022-09-02T21:30:45.968Z,5.97
2022-09-02T21:33:35.539Z,4.78
2022-09-02T21:36:28.064Z,4.05
2022-09-02T21:42:14.543Z,6.70
2022-09-02T21:45:10.718Z,3.47
2022-09-02T21:48:15.159Z,2.72
2022-09-02T21:51:08.676Z,3.70
2022-09-02T21:54:13.519Z,3.15
2022-09-02T21:57:12.150Z,5.80
2022-09-02T21:59:57.688Z,5.28
2022-09-02T22:03:13.490Z,3.60
2022-09-02T22:06:16.898Z,3.70
2022-09-02T22:09:27.266Z,4.80
2022-09-02T22:12:14.647Z,4.00
2022-09-02T22:15:21.102Z,2.65
2022-09-02T22:18:28.814Z,6.68
2022-09-02T22:21:25.082Z,2.90
2022-09-02T22:24:11.265Z,2.40
2022-09-02T22:27:11.930Z,3.05
2022-09-02T22:30:09.673Z,3.35
2022-09-02T22:33:16.050Z,3.25
2022-09-02T22:36:20.321Z,4.25
2022-09-02T22:39:07.787Z,3.67
2022-09-02T22:42:03.044Z,3.03
2022-09-02T22:45:20.044Z,2.97
2022-09-02T22:48:51.963Z,4.00
2022-09-02T22:52:05.989Z,3.95
2022-09-02T22:54:52.310Z,2.40
2022-09-02T22:58:00.259Z,2.80
2022-09-02T23:00:53.390Z,2.70
2022-09-02T23:03:47.749Z,4.22
2022-09-02T23:06:33.589Z,3.13
2022-09-02T23:09:19.199Z,1.95
2022-09-02T23:12:23.167Z,4.10
2022-09-02T23:15:22.977Z,3.25
2022-09-02T23:18:29.725Z,3.17
2022-09-02T23:21:32.795Z,2.95
2022-09-02T23:24:21.449Z,4.95
2022-09-02T23:27:16.669Z,4.20
2022-09-02T23:30:02.442Z,3.08
2022-09-02T23:33:13.884Z,4.30
2022-09-02T23:36:34.318Z,5.53
2022-09-02T23:39:38.080Z,5.22
2022-09-02T23:42:25.264Z,2.53
2022-09-02T23:45:19.670Z,2.05
2022-09-02T23:48:23.646Z,3.42
2022-09-02T23:51:16.015Z,2.38
2022-09-02T23:54:18.841Z,6.60
2022-09-02T23:57:31.410Z,2.47
